createdAt,value
2018-12-02T00:00:08.413Z,998.24
2018-12-02T00:00:34.516Z,998.02
2018-12-02T00:01:00.619Z,998.04
2018-12-02T00:01:26.729Z,997.94
2018-12-02T00:01:52.833Z,997.99
2018-12-02T00:02:18.941Z,997.95
2018-12-02T00:02:45.054Z,997.95
2018-12-02T00:03:11.198Z,997.95
2018-12-02T00:03:37.258Z,998.03
2018-12-02T00:04:03.398Z,997.95
2018-12-02T00:04:29.499Z,997.95
2018-12-02T00:04:55.609Z,997.93
2018-12-02T00:05:21.749Z,997.88
2018-12-02T00:05:47.858Z,997.91
2018-12-02T00:06:13.966Z,997.96
2018-12-02T00:06:40.070Z,997.96
2018-12-02T00:07:06.175Z,997.86
2018-12-02T00:07:32.287Z,997.91
2018-12-02T00:07:58.395Z,997.9
2018-12-02T00:08:24.502Z,997.92
2018-12-02T00:08:50.639Z,997.93
2018-12-02T00:09:16.742Z,997.92
2018-12-02T00:09:42.854Z,997.85
2018-12-02T00:10:08.959Z,997.87
2018-12-02T00:10:35.069Z,997.85
2018-12-02T00:11:01.172Z,997.89
2018-12-02T00:11:27.279Z,997.85
2018-12-02T00:11:53.390Z,997.93
2018-12-02T00:12:19.517Z,997.84
2018-12-02T00:12:45.619Z,997.87
2018-12-02T00:13:11.732Z,997.92
2018-12-02T00:13:37.861Z,997.8
2018-12-02T00:14:03.968Z,997.73
2018-12-02T00:14:30.107Z,997.77
2018-12-02T00:14:56.217Z,997.79
2018-12-02T00:15:22.361Z,997.74
2018-12-02T00:15:48.477Z,997.93
2018-12-02T00:16:14.584Z,997.94
2018-12-02T00:16:40.718Z,997.78
2018-12-02T00:17:06.832Z,997.78
2018-12-02T00:17:32.934Z,997.78
2018-12-02T00:17:59.050Z,997.78
2018-12-02T00:18:25.143Z,997.72
2018-12-02T00:18:51.887Z,997.78
2018-12-02T00:19:17.986Z,997.77
2018-12-02T00:19:44.093Z,997.68
2018-12-02T00:20:10.202Z,997.69
2018-12-02T00:20:36.309Z,997.72
2018-12-02T00:21:02.445Z,997.71
2018-12-02T00:21:28.553Z,997.69
2018-12-02T00:21:54.657Z,997.69
2018-12-02T00:22:20.763Z,997.68
2018-12-02T00:22:46.871Z,997.7
2018-12-02T00:23:13.007Z,997.66
2018-12-02T00:23:39.142Z,997.68
2018-12-02T00:24:05.251Z,997.64
2018-12-02T00:24:31.364Z,997.68
2018-12-02T00:24:57.489Z,997.62
2018-12-02T00:25:23.594Z,997.64
2018-12-02T00:25:49.701Z,997.73
2018-12-02T00:26:15.812Z,997.7
2018-12-02T00:26:41.950Z,997.66
2018-12-02T00:27:08.055Z,997.7
2018-12-02T00:27:34.163Z,997.71
2018-12-02T00:28:00.268Z,997.73
2018-12-02T00:28:26.368Z,997.65
2018-12-02T00:28:52.474Z,997.63
2018-12-02T00:29:18.582Z,997.69
2018-12-02T00:29:44.692Z,997.68
2018-12-02T00:30:10.795Z,997.65
2018-12-02T00:30:36.903Z,997.68
2018-12-02T00:31:03.006Z,997.68
2018-12-02T00:31:29.113Z,997.68
2018-12-02T00:31:55.246Z,997.68
2018-12-02T00:32:21.376Z,997.71
2018-12-02T00:32:47.481Z,997.7
2018-12-02T00:33:13.593Z,997.67
2018-12-02T00:33:39.687Z,997.67
2018-12-02T00:34:05.792Z,997.73
2018-12-02T00:34:31.903Z,997.83
2018-12-02T00:34:58.010Z,997.7
2018-12-02T00:35:24.123Z,997.71
2018-12-02T00:35:50.220Z,997.7
2018-12-02T00:36:16.339Z,997.71
2018-12-02T00:36:42.450Z,997.66
2018-12-02T00:37:08.555Z,997.75
2018-12-02T00:37:34.653Z,997.77
2018-12-02T00:38:00.768Z,997.61
2018-12-02T00:38:26.878Z,997.68
2018-12-02T00:38:52.983Z,997.65
2018-12-02T00:39:19.077Z,997.68
2018-12-02T00:39:45.216Z,997.67
2018-12-02T00:40:11.317Z,997.68
2018-12-02T00:40:37.423Z,997.66
2018-12-02T00:41:03.534Z,997.64
2018-12-02T00:41:29.637Z,997.61
2018-12-02T00:41:55.742Z,997.72
2018-12-02T00:42:21.851Z,997.65
2018-12-02T00:42:47.963Z,997.69
2018-12-02T00:43:14.067Z,997.6
2018-12-02T00:43:40.205Z,997.59
2018-12-02T00:44:07.230Z,997.65
2018-12-02T00:44:33.334Z,997.69
2018-12-02T00:44:59.440Z,997.64
2018-12-02T00:45:25.544Z,997.6
2018-12-02T00:45:51.680Z,997.7
2018-12-02T00:46:17.786Z,997.57
2018-12-02T00:46:43.911Z,997.64
2018-12-02T00:47:10.054Z,997.55
2018-12-02T00:47:36.160Z,997.6
2018-12-02T00:48:02.271Z,997.56
2018-12-02T00:48:28.376Z,997.53
2018-12-02T00:48:54.483Z,997.53
2018-12-02T00:49:20.595Z,997.59
2018-12-02T00:49:46.726Z,997.58
2018-12-02T00:50:12.830Z,997.51
2018-12-02T00:50:38.974Z,997.51
2018-12-02T00:51:05.074Z,997.54
2018-12-02T00:51:31.177Z,997.55
2018-12-02T00:51:57.314Z,997.55
2018-12-02T00:52:23.458Z,997.52
2018-12-02T00:52:49.595Z,997.47
2018-12-02T00:53:15.701Z,997.59
2018-12-02T00:53:41.817Z,997.52
2018-12-02T00:54:07.922Z,997.47
2018-12-02T00:54:34.027Z,997.42
2018-12-02T00:55:00.135Z,997.53
2018-12-02T00:55:26.245Z,997.52
2018-12-02T00:55:52.351Z,997.44
2018-12-02T00:56:18.484Z,997.5
2018-12-02T00:56:45.059Z,997.51
2018-12-02T00:57:11.171Z,997.44
2018-12-02T00:57:37.304Z,997.39
2018-12-02T00:58:03.411Z,997.39
2018-12-02T00:58:29.540Z,997.47
2018-12-02T00:58:55.652Z,997.44
2018-12-02T00:59:21.755Z,997.39
2018-12-02T00:59:47.869Z,997.42
2018-12-02T01:00:13.967Z,997.42
2018-12-02T01:00:40.077Z,997.41
2018-12-02T01:01:06.211Z,997.4
2018-12-02T01:01:32.343Z,997.39
2018-12-02T01:01:58.447Z,997.38
2018-12-02T01:02:24.579Z,997.38
2018-12-02T01:02:50.685Z,997.37
2018-12-02T01:03:16.823Z,997.38
2018-12-02T01:03:42.966Z,997.41
2018-12-02T01:04:09.069Z,997.36
2018-12-02T01:04:35.203Z,997.34
2018-12-02T01:05:01.302Z,997.32
2018-12-02T01:05:27.406Z,997.33
2018-12-02T01:05:53.550Z,997.35
2018-12-02T01:06:19.658Z,997.34
2018-12-02T01:06:45.793Z,997.31
2018-12-02T01:07:11.890Z,997.32
2018-12-02T01:07:38.007Z,997.34
2018-12-02T01:08:04.113Z,997.29
2018-12-02T01:08:30.244Z,997.32
2018-12-02T01:08:56.355Z,997.25
2018-12-02T01:09:22.459Z,997.29
2018-12-02T01:09:48.565Z,997.22
2018-12-02T01:10:14.699Z,997.24
2018-12-02T01:10:40.834Z,997.19
2018-12-02T01:11:06.947Z,997.31
2018-12-02T01:11:33.050Z,997.23
2018-12-02T01:11:59.157Z,997.23
2018-12-02T01:12:25.291Z,997.21
2018-12-02T01:12:51.396Z,997.16
2018-12-02T01:13:17.504Z,997.21
2018-12-02T01:13:43.606Z,997.26
2018-12-02T01:14:09.747Z,997.2
2018-12-02T01:14:35.852Z,997.23
2018-12-02T01:15:01.953Z,997.18
2018-12-02T01:15:28.101Z,997.17
2018-12-02T01:15:54.157Z,997.15
2018-12-02T01:16:20.260Z,997.11
2018-12-02T01:16:46.372Z,997.14
2018-12-02T01:17:12.507Z,997.19
2018-12-02T01:17:38.612Z,997.1
2018-12-02T01:18:04.719Z,997.11
2018-12-02T01:18:30.855Z,997.1
2018-12-02T01:18:56.967Z,997.13
2018-12-02T01:19:23.072Z,997.13
2018-12-02T01:19:49.180Z,997.05
2018-12-02T01:20:15.282Z,997.14
2018-12-02T01:20:41.391Z,997.11
2018-12-02T01:21:07.501Z,997.08
2018-12-02T01:21:33.606Z,997.08
2018-12-02T01:21:59.708Z,997.06
2018-12-02T01:22:25.819Z,997.11
2018-12-02T01:22:51.949Z,996.99
2018-12-02T01:23:18.088Z,997.03
2018-12-02T01:23:44.219Z,997.03
2018-12-02T01:24:10.358Z,996.99
2018-12-02T01:24:36.511Z,996.99
2018-12-02T01:25:02.617Z,997.05
2018-12-02T01:25:28.728Z,996.95
2018-12-02T01:25:54.896Z,996.99
2018-12-02T01:26:21.000Z,996.98
2018-12-02T01:26:47.104Z,996.95
2018-12-02T01:27:13.212Z,996.91
2018-12-02T01:27:39.323Z,996.91
2018-12-02T01:28:05.432Z,996.87
2018-12-02T01:28:31.533Z,996.94
2018-12-02T01:28:57.646Z,996.86
2018-12-02T01:29:23.754Z,996.82
2018-12-02T01:29:49.859Z,996.87
2018-12-02T01:30:15.965Z,996.85
2018-12-02T01:30:42.100Z,996.86
2018-12-02T01:31:08.197Z,996.85
2018-12-02T01:31:34.303Z,996.92
2018-12-02T01:32:00.416Z,996.86
2018-12-02T01:32:26.520Z,996.74
2018-12-02T01:32:52.630Z,996.81
2018-12-02T01:33:18.729Z,996.76
2018-12-02T01:33:44.851Z,996.81
2018-12-02T01:34:10.951Z,996.79
2018-12-02T01:34:37.060Z,996.87
2018-12-02T01:35:03.165Z,996.8
2018-12-02T01:35:29.265Z,996.76
2018-12-02T01:35:55.377Z,996.72
2018-12-02T01:36:21.485Z,996.78
2018-12-02T01:36:47.594Z,996.8
2018-12-02T01:37:13.698Z,996.76
2018-12-02T01:37:39.802Z,996.74
2018-12-02T01:38:05.910Z,996.76
2018-12-02T01:38:32.023Z,996.77
2018-12-02T01:38:58.127Z,996.72
2018-12-02T01:39:24.261Z,996.71
2018-12-02T01:39:50.366Z,996.76
2018-12-02T01:40:16.477Z,996.76
2018-12-02T01:40:42.579Z,996.71
2018-12-02T01:41:08.713Z,996.81
2018-12-02T01:41:34.822Z,996.76
2018-12-02T01:42:00.930Z,996.76
2018-12-02T01:42:27.034Z,996.72
2018-12-02T01:42:53.193Z,996.69
2018-12-02T01:43:19.297Z,996.73
2018-12-02T01:43:45.403Z,996.73
2018-12-02T01:44:11.511Z,996.81
2018-12-02T01:44:37.617Z,996.67
2018-12-02T01:45:03.728Z,996.67
2018-12-02T01:45:29.863Z,996.73
2018-12-02T01:45:55.995Z,996.66
2018-12-02T01:46:22.093Z,996.61
2018-12-02T01:46:48.205Z,996.62
2018-12-02T01:47:14.310Z,996.58
2018-12-02T01:47:40.412Z,996.58
2018-12-02T01:48:06.518Z,996.58
2018-12-02T01:48:32.653Z,996.53
2018-12-02T01:48:58.750Z,996.62
2018-12-02T01:49:24.859Z,996.53
2018-12-02T01:49:50.962Z,996.53
2018-12-02T01:50:17.065Z,996.54
2018-12-02T01:50:43.209Z,996.51
2018-12-02T01:51:09.319Z,996.48
2018-12-02T01:51:35.423Z,996.48
2018-12-02T01:52:01.566Z,996.43
2018-12-02T01:52:27.696Z,996.46
2018-12-02T01:52:53.803Z,996.45
2018-12-02T01:53:19.932Z,996.47
2018-12-02T01:53:46.044Z,996.44
2018-12-02T01:54:12.174Z,996.53
2018-12-02T01:54:38.346Z,996.47
2018-12-02T01:55:04.457Z,996.47
2018-12-02T01:55:30.561Z,996.48
2018-12-02T01:55:56.665Z,996.46
2018-12-02T01:56:22.774Z,996.43
2018-12-02T01:56:48.880Z,996.54
2018-12-02T01:57:14.991Z,996.38
2018-12-02T01:57:41.097Z,996.4
2018-12-02T01:58:07.205Z,996.39
2018-12-02T01:58:33.304Z,996.42
2018-12-02T01:58:59.419Z,996.34
2018-12-02T01:59:25.527Z,996.39
2018-12-02T01:59:51.629Z,996.36
2018-12-02T02:00:17.770Z,996.32
2018-12-02T02:00:43.874Z,996.34
2018-12-02T02:01:09.987Z,996.34
2018-12-02T02:01:36.090Z,996.35
2018-12-02T02:02:02.191Z,996.31
2018-12-02T02:02:28.297Z,996.33
2018-12-02T02:02:54.402Z,996.4
2018-12-02T02:03:20.536Z,996.33
2018-12-02T02:03:46.643Z,996.33
2018-12-02T02:04:12.777Z,996.31
2018-12-02T02:04:38.883Z,996.33
2018-12-02T02:05:05.016Z,996.29
2018-12-02T02:05:31.154Z,996.34
2018-12-02T02:05:57.253Z,996.32
2018-12-02T02:06:23.362Z,996.26
2018-12-02T02:06:49.473Z,996.28
2018-12-02T02:07:15.582Z,996.28
2018-12-02T02:07:41.694Z,996.26
2018-12-02T02:08:07.820Z,996.24
2018-12-02T02:08:33.928Z,996.21
2018-12-02T02:09:00.037Z,996.2
2018-12-02T02:09:26.173Z,996.17
2018-12-02T02:09:52.280Z,996.18
2018-12-02T02:10:18.388Z,996.2
2018-12-02T02:10:44.492Z,996.13
2018-12-02T02:11:10.602Z,996.19
2018-12-02T02:11:36.701Z,996.14
2018-12-02T02:12:02.813Z,996.21
2018-12-02T02:12:28.923Z,996.09
2018-12-02T02:12:55.022Z,996.15
2018-12-02T02:13:21.126Z,996.09
2018-12-02T02:13:47.240Z,996.07
2018-12-02T02:14:13.341Z,996.05
2018-12-02T02:14:39.451Z,996.03
2018-12-02T02:15:05.557Z,996
2018-12-02T02:15:31.668Z,996.01
2018-12-02T02:15:57.769Z,996.07
2018-12-02T02:16:23.915Z,996.07
2018-12-02T02:16:50.019Z,995.98
2018-12-02T02:17:16.127Z,996.04
2018-12-02T02:17:42.228Z,995.98
2018-12-02T02:18:08.338Z,995.95
2018-12-02T02:18:34.447Z,995.98
2018-12-02T02:19:00.555Z,995.97
2018-12-02T02:19:26.667Z,996.02
2018-12-02T02:19:52.776Z,996.04
2018-12-02T02:20:18.884Z,996.04
2018-12-02T02:20:44.989Z,996.03
2018-12-02T02:21:11.099Z,996.01
2018-12-02T02:21:37.207Z,995.98
2018-12-02T02:22:03.317Z,995.96
2018-12-02T02:22:29.428Z,995.95
2018-12-02T02:22:55.530Z,995.91
2018-12-02T02:23:21.640Z,995.9
2018-12-02T02:23:47.750Z,995.87
2018-12-02T02:24:13.858Z,995.89
2018-12-02T02:24:39.966Z,995.89
2018-12-02T02:25:06.070Z,995.87
2018-12-02T02:25:32.172Z,995.86
2018-12-02T02:25:58.279Z,995.9
2018-12-02T02:26:24.388Z,995.92
2018-12-02T02:26:50.489Z,995.87
2018-12-02T02:27:16.600Z,995.86
2018-12-02T02:27:42.706Z,995.86
2018-12-02T02:28:08.808Z,995.81
2018-12-02T02:28:34.923Z,995.84
2018-12-02T02:29:01.027Z,995.8
2018-12-02T02:29:27.131Z,995.84
2018-12-02T02:29:53.266Z,995.77
2018-12-02T02:30:19.414Z,995.74
2018-12-02T02:30:45.504Z,995.77
2018-12-02T02:31:11.639Z,995.74
2018-12-02T02:31:37.745Z,995.76
2018-12-02T02:32:03.860Z,995.74
2018-12-02T02:32:29.996Z,995.73
2018-12-02T02:32:56.101Z,995.71
2018-12-02T02:33:22.206Z,995.67
2018-12-02T02:33:48.340Z,995.67
2018-12-02T02:34:14.502Z,995.69
2018-12-02T02:34:40.631Z,995.65
2018-12-02T02:35:06.737Z,995.66
2018-12-02T02:35:32.878Z,995.66
2018-12-02T02:35:58.982Z,995.64
2018-12-02T02:36:25.088Z,995.66
2018-12-02T02:36:51.189Z,995.66
2018-12-02T02:37:17.330Z,995.63
2018-12-02T02:37:43.435Z,995.66
2018-12-02T02:38:09.541Z,995.65
2018-12-02T02:38:35.672Z,995.65
2018-12-02T02:39:01.785Z,995.68
2018-12-02T02:39:27.890Z,995.65
2018-12-02T02:39:53.995Z,995.66
2018-12-02T02:40:20.127Z,995.66
2018-12-02T02:40:46.234Z,995.64
2018-12-02T02:41:12.396Z,995.59
2018-12-02T02:41:38.499Z,995.58
2018-12-02T02:42:04.604Z,995.52
2018-12-02T02:42:30.738Z,995.58
2018-12-02T02:42:56.846Z,995.55
2018-12-02T02:43:22.981Z,995.55
2018-12-02T02:43:49.089Z,995.48
2018-12-02T02:44:15.228Z,995.52
2018-12-02T02:44:41.340Z,995.54
2018-12-02T02:45:07.498Z,995.54
2018-12-02T02:45:33.611Z,995.52
2018-12-02T02:45:59.718Z,995.49
2018-12-02T02:46:25.824Z,995.54
2018-12-02T02:46:51.959Z,995.47
2018-12-02T02:47:18.076Z,995.44
2018-12-02T02:47:44.181Z,995.45
2018-12-02T02:48:10.308Z,995.44
2018-12-02T02:48:36.418Z,995.37
2018-12-02T02:49:02.548Z,995.39
2018-12-02T02:49:28.651Z,995.44
2018-12-02T02:49:54.750Z,995.4
2018-12-02T02:50:20.871Z,995.42
2018-12-02T02:50:47.030Z,995.44
2018-12-02T02:51:13.146Z,995.47
2018-12-02T02:51:39.279Z,995.45
2018-12-02T02:52:05.385Z,995.5
2018-12-02T02:52:31.492Z,995.52
2018-12-02T02:52:57.610Z,995.49
2018-12-02T02:53:23.717Z,995.56
2018-12-02T02:53:49.819Z,995.55
2018-12-02T02:54:15.955Z,995.54
2018-12-02T02:54:42.084Z,995.51
2018-12-02T02:55:08.218Z,995.47
2018-12-02T02:55:34.352Z,995.47
2018-12-02T02:56:00.467Z,995.44
2018-12-02T02:56:26.600Z,995.44
2018-12-02T02:56:52.733Z,995.47
2018-12-02T02:57:18.842Z,995.44
2018-12-02T02:57:44.981Z,995.45
2018-12-02T02:58:11.117Z,995.46
2018-12-02T02:58:37.249Z,995.46
2018-12-02T02:59:03.356Z,995.46
2018-12-02T02:59:29.463Z,995.45
2018-12-02T02:59:55.576Z,995.4
2018-12-02T03:00:21.682Z,995.41
2018-12-02T03:00:47.793Z,995.36
2018-12-02T03:01:13.900Z,995.33
2018-12-02T03:01:40.013Z,995.35
2018-12-02T03:02:06.122Z,995.31
2018-12-02T03:02:32.256Z,995.3
2018-12-02T03:02:58.363Z,995.28
2018-12-02T03:03:24.475Z,995.3
2018-12-02T03:03:50.657Z,995.32
2018-12-02T03:04:16.771Z,995.32
2018-12-02T03:04:42.902Z,995.28
2018-12-02T03:05:09.002Z,995.34
2018-12-02T03:05:35.150Z,995.36
2018-12-02T03:06:01.280Z,995.29
2018-12-02T03:06:27.390Z,995.28
2018-12-02T03:06:53.557Z,995.3
2018-12-02T03:07:19.684Z,995.29
2018-12-02T03:07:45.849Z,995.28
2018-12-02T03:08:11.990Z,995.3
2018-12-02T03:08:38.097Z,995.19
2018-12-02T03:09:04.235Z,995.25
2018-12-02T03:09:30.392Z,995.24
2018-12-02T03:09:56.501Z,995.27
2018-12-02T03:10:22.639Z,995.2
2018-12-02T03:10:48.752Z,995.21
2018-12-02T03:11:14.923Z,995.23
2018-12-02T03:11:40.988Z,995.24
2018-12-02T03:12:07.122Z,995.14
2018-12-02T03:12:33.232Z,995.23
2018-12-02T03:12:59.344Z,995.2
2018-12-02T03:13:25.446Z,995.24
2018-12-02T03:13:51.558Z,995.2
2018-12-02T03:14:17.662Z,995.16
2018-12-02T03:14:43.795Z,995.18
2018-12-02T03:15:09.908Z,995.16
2018-12-02T03:15:36.040Z,995.17
2018-12-02T03:16:02.179Z,995.13
2018-12-02T03:16:28.282Z,995.19
2018-12-02T03:16:54.386Z,995.15
2018-12-02T03:17:20.527Z,995.23
2018-12-02T03:17:46.648Z,995.16
2018-12-02T03:18:12.739Z,995.23
2018-12-02T03:18:38.867Z,995.15
2018-12-02T03:19:05.000Z,995.12
2018-12-02T03:19:31.117Z,995.14
2018-12-02T03:19:57.223Z,995.17
2018-12-02T03:20:23.323Z,995.1
2018-12-02T03:20:49.462Z,995.15
2018-12-02T03:21:15.574Z,995.17
2018-12-02T03:21:41.705Z,995.14
2018-12-02T03:22:07.814Z,995.21
2018-12-02T03:22:33.923Z,995.26
2018-12-02T03:23:00.084Z,995.19
2018-12-02T03:23:26.247Z,995.22
2018-12-02T03:23:52.358Z,995.23
2018-12-02T03:24:18.459Z,995.2
2018-12-02T03:24:44.574Z,995.21
2018-12-02T03:25:10.681Z,995.19
2018-12-02T03:25:36.815Z,995.21
2018-12-02T03:26:02.920Z,995.18
2018-12-02T03:26:29.025Z,995.19
2018-12-02T03:26:55.166Z,995.1
2018-12-02T03:27:21.265Z,995.12
2018-12-02T03:27:47.429Z,995.18
2018-12-02T03:28:13.546Z,995.15
2018-12-02T03:28:39.679Z,995.16
2018-12-02T03:29:05.813Z,995.19
2018-12-02T03:29:31.947Z,995.12
2018-12-02T03:29:58.053Z,995.25
2018-12-02T03:30:24.183Z,995.23
2018-12-02T03:30:50.307Z,995.24
2018-12-02T03:31:16.479Z,995.2
2018-12-02T03:31:42.612Z,995.2
2018-12-02T03:32:08.766Z,995.21
2018-12-02T03:32:34.898Z,995.2
2018-12-02T03:33:01.013Z,995.22
2018-12-02T03:33:27.182Z,995.26
2018-12-02T03:33:53.373Z,995.21
2018-12-02T03:34:19.476Z,995.22
2018-12-02T03:34:45.587Z,995.18
2018-12-02T03:35:11.716Z,995.23
2018-12-02T03:35:37.829Z,995.18
2018-12-02T03:36:03.929Z,995.21
2018-12-02T03:36:30.039Z,995.22
2018-12-02T03:36:56.145Z,995.14
2018-12-02T03:37:22.251Z,995.11
2018-12-02T03:37:48.363Z,995.05
2018-12-02T03:38:14.465Z,995.23
2018-12-02T03:38:40.578Z,995.07
2018-12-02T03:39:06.742Z,995.13
2018-12-02T03:39:32.849Z,995.3
2018-12-02T03:39:58.951Z,995.1
2018-12-02T03:40:25.082Z,995.08
2018-12-02T03:40:51.221Z,995.1
2018-12-02T03:41:17.377Z,995.07
2018-12-02T03:41:43.487Z,995.07
2018-12-02T03:42:09.594Z,995.04
2018-12-02T03:42:35.704Z,995.06
2018-12-02T03:43:01.858Z,995.07
2018-12-02T03:43:27.997Z,995.11
2018-12-02T03:43:54.099Z,995.15
2018-12-02T03:44:20.239Z,995.07
2018-12-02T03:44:46.371Z,995.02
2018-12-02T03:45:12.472Z,995.09
2018-12-02T03:45:38.602Z,995.02
2018-12-02T03:46:04.707Z,995.06
2018-12-02T03:46:30.817Z,995.06
2018-12-02T03:46:56.950Z,995.09
2018-12-02T03:47:23.054Z,995.12
2018-12-02T03:47:49.197Z,995.08
2018-12-02T03:48:15.305Z,995.06
2018-12-02T03:48:41.437Z,995.04
2018-12-02T03:49:07.539Z,995
2018-12-02T03:49:33.648Z,995.06
2018-12-02T03:49:59.755Z,995.05
2018-12-02T03:50:25.909Z,995.08
2018-12-02T03:50:52.013Z,995.12
2018-12-02T03:51:18.151Z,995.01
2018-12-02T03:51:44.285Z,995.09
2018-12-02T03:52:10.390Z,995.08
2018-12-02T03:52:36.492Z,994.98
2018-12-02T03:53:02.601Z,994.99
2018-12-02T03:53:28.711Z,994.99
2018-12-02T03:53:54.819Z,995.05
2018-12-02T03:54:20.930Z,995.01
2018-12-02T03:54:47.031Z,995.03
2018-12-02T03:55:13.140Z,995.07
2018-12-02T03:55:39.246Z,995.01
2018-12-02T03:56:05.385Z,994.96
2018-12-02T03:56:31.507Z,995
2018-12-02T03:56:57.617Z,994.99
2018-12-02T03:57:23.718Z,995.09
2018-12-02T03:57:49.866Z,995.05
2018-12-02T03:58:15.976Z,994.96
2018-12-02T03:58:42.108Z,995.06
2018-12-02T03:59:08.274Z,994.96
2018-12-02T03:59:34.380Z,994.99
2018-12-02T04:00:00.486Z,995
2018-12-02T04:00:26.613Z,995
2018-12-02T04:00:52.726Z,994.96
2018-12-02T04:01:18.831Z,994.95
2018-12-02T04:01:44.969Z,994.89
2018-12-02T04:02:11.078Z,994.89
2018-12-02T04:02:37.212Z,994.89
2018-12-02T04:03:03.353Z,994.91
2018-12-02T04:03:29.476Z,994.92
2018-12-02T04:03:55.609Z,994.91
2018-12-02T04:04:21.744Z,994.92
2018-12-02T04:04:47.861Z,994.93
2018-12-02T04:05:13.967Z,994.93
2018-12-02T04:05:40.076Z,994.9
2018-12-02T04:06:06.181Z,994.89
2018-12-02T04:06:32.320Z,994.91
2018-12-02T04:06:58.452Z,994.9
2018-12-02T04:07:24.612Z,994.84
2018-12-02T04:07:50.719Z,994.82
2018-12-02T04:08:16.888Z,994.9
2018-12-02T04:08:42.992Z,994.8
2018-12-02T04:09:09.105Z,994.79
2018-12-02T04:09:35.207Z,994.83
2018-12-02T04:10:01.312Z,994.79
2018-12-02T04:10:27.447Z,994.78
2018-12-02T04:10:53.560Z,994.72
2018-12-02T04:11:19.657Z,994.82
2018-12-02T04:11:45.788Z,994.74
2018-12-02T04:12:11.918Z,994.79
2018-12-02T04:12:38.001Z,994.75
2018-12-02T04:13:04.112Z,994.7
2018-12-02T04:13:30.217Z,994.75
2018-12-02T04:13:56.326Z,994.7
2018-12-02T04:14:22.435Z,994.71
2018-12-02T04:14:48.571Z,994.76
2018-12-02T04:15:14.672Z,994.73
2018-12-02T04:15:40.763Z,994.63
2018-12-02T04:16:06.860Z,994.67
2018-12-02T04:16:33.003Z,994.67
2018-12-02T04:16:59.118Z,994.69
2018-12-02T04:17:25.264Z,994.77
2018-12-02T04:17:51.388Z,994.63
2018-12-02T04:18:17.490Z,994.62
2018-12-02T04:18:43.591Z,994.58
2018-12-02T04:19:09.702Z,994.63
2018-12-02T04:19:35.825Z,994.68
2018-12-02T04:20:01.932Z,994.63
2018-12-02T04:20:28.093Z,994.62
2018-12-02T04:20:54.195Z,994.6
2018-12-02T04:21:20.298Z,994.55
2018-12-02T04:21:46.431Z,994.57
2018-12-02T04:22:13.010Z,994.52
2018-12-02T04:22:39.104Z,994.59
2018-12-02T04:23:05.211Z,994.53
2018-12-02T04:23:31.317Z,994.56
2018-12-02T04:23:57.431Z,994.51
2018-12-02T04:24:23.529Z,994.52
2018-12-02T04:24:49.634Z,994.51
2018-12-02T04:25:15.748Z,994.5
2018-12-02T04:25:41.885Z,994.47
2018-12-02T04:26:08.026Z,994.51
2018-12-02T04:26:34.236Z,994.48
2018-12-02T04:27:00.378Z,994.44
2018-12-02T04:27:26.521Z,994.53
2018-12-02T04:27:52.680Z,994.46
2018-12-02T04:28:18.791Z,994.5
2018-12-02T04:28:45.120Z,994.47
2018-12-02T04:29:11.220Z,994.48
2018-12-02T04:29:37.346Z,994.42
2018-12-02T04:30:03.485Z,994.47
2018-12-02T04:30:29.648Z,994.45
2018-12-02T04:30:55.750Z,994.46
2018-12-02T04:31:21.853Z,994.38
2018-12-02T04:31:47.962Z,994.43
2018-12-02T04:32:14.063Z,994.34
2018-12-02T04:32:40.196Z,994.3
2018-12-02T04:33:06.302Z,994.26
2018-12-02T04:33:32.408Z,994.34
2018-12-02T04:33:58.507Z,994.4
2018-12-02T04:34:24.620Z,994.37
2018-12-02T04:34:50.748Z,994.37
2018-12-02T04:35:16.861Z,994.37
2018-12-02T04:35:42.994Z,994.34
2018-12-02T04:36:09.097Z,994.37
2018-12-02T04:36:35.202Z,994.34
2018-12-02T04:37:01.312Z,994.3
2018-12-02T04:37:27.440Z,994.26
2018-12-02T04:37:53.544Z,994.27
2018-12-02T04:38:19.684Z,994.27
2018-12-02T04:38:45.826Z,994.31
2018-12-02T04:39:11.956Z,994.37
2018-12-02T04:39:38.038Z,994.3
2018-12-02T04:40:04.171Z,994.3
2018-12-02T04:40:30.307Z,994.24
2018-12-02T04:40:56.429Z,994.28
2018-12-02T04:41:22.563Z,994.28
2018-12-02T04:41:48.697Z,994.23
2018-12-02T04:42:14.902Z,994.36
2018-12-02T04:42:41.008Z,994.27
2018-12-02T04:43:07.239Z,994.22
2018-12-02T04:43:33.379Z,994.26
2018-12-02T04:43:59.490Z,994.28
2018-12-02T04:44:25.615Z,994.34
2018-12-02T04:44:51.752Z,994.24
2018-12-02T04:45:17.938Z,994.24
2018-12-02T04:45:44.077Z,994.2
2018-12-02T04:46:10.222Z,994.22
2018-12-02T04:46:36.334Z,994.18
2018-12-02T04:47:02.475Z,994.17
2018-12-02T04:47:28.668Z,994.18
2018-12-02T04:47:54.785Z,994.14
2018-12-02T04:48:20.905Z,994.16
2018-12-02T04:48:47.012Z,994.15
2018-12-02T04:49:13.118Z,994.15
2018-12-02T04:49:39.246Z,994.13
2018-12-02T04:50:05.345Z,994.09
2018-12-02T04:50:31.457Z,994.14
2018-12-02T04:50:57.581Z,994.16
2018-12-02T04:51:23.719Z,994.11
2018-12-02T04:51:49.825Z,994.12
2018-12-02T04:52:15.932Z,994.15
2018-12-02T04:52:42.039Z,994.15
2018-12-02T04:53:08.142Z,994.13
2018-12-02T04:53:34.275Z,994.11
2018-12-02T04:54:00.405Z,994.13
2018-12-02T04:54:26.515Z,994.08
2018-12-02T04:54:52.644Z,994.09
2018-12-02T04:55:18.749Z,994.08
2018-12-02T04:55:44.854Z,994.11
2018-12-02T04:56:10.989Z,994.08
2018-12-02T04:56:37.091Z,994.07
2018-12-02T04:57:03.258Z,994.04
2018-12-02T04:57:29.358Z,994.1
2018-12-02T04:57:55.548Z,994.08
2018-12-02T04:58:21.654Z,994.05
2018-12-02T04:58:47.760Z,994.07
2018-12-02T04:59:13.866Z,994.05
2018-12-02T04:59:39.972Z,994.02
2018-12-02T05:00:06.086Z,994.07
2018-12-02T05:00:32.210Z,994.06
2018-12-02T05:00:58.322Z,994.07
2018-12-02T05:01:24.422Z,993.99
2018-12-02T05:01:50.542Z,994.04
2018-12-02T05:02:16.670Z,994.02
2018-12-02T05:02:42.780Z,994.01
2018-12-02T05:03:08.942Z,994.05
2018-12-02T05:03:35.082Z,994.01
2018-12-02T05:04:01.206Z,994.03
2018-12-02T05:04:27.320Z,993.98
2018-12-02T05:04:53.431Z,993.99
2018-12-02T05:05:19.561Z,994.02
2018-12-02T05:05:45.708Z,993.96
2018-12-02T05:06:11.815Z,993.96
2018-12-02T05:06:37.923Z,993.92
2018-12-02T05:07:04.022Z,993.94
2018-12-02T05:07:30.134Z,993.96
2018-12-02T05:07:56.243Z,993.97
2018-12-02T05:08:22.412Z,993.94
2018-12-02T05:08:48.519Z,993.99
2018-12-02T05:09:14.680Z,993.92
2018-12-02T05:09:41.144Z,993.96
2018-12-02T05:10:07.311Z,993.94
2018-12-02T05:10:33.439Z,993.94
2018-12-02T05:10:59.549Z,993.94
2018-12-02T05:11:25.654Z,993.91
2018-12-02T05:11:51.797Z,993.94
2018-12-02T05:12:17.901Z,993.84
2018-12-02T05:12:44.035Z,993.9
2018-12-02T05:13:10.138Z,993.94
2018-12-02T05:13:36.292Z,993.89
2018-12-02T05:14:02.403Z,993.94
2018-12-02T05:14:28.505Z,993.9
2018-12-02T05:14:54.611Z,993.91
2018-12-02T05:15:20.732Z,993.86
2018-12-02T05:15:46.857Z,993.88
2018-12-02T05:16:12.989Z,993.91
2018-12-02T05:16:39.120Z,993.85
2018-12-02T05:17:05.262Z,993.87
2018-12-02T05:17:31.366Z,993.9
2018-12-02T05:17:57.504Z,993.86
2018-12-02T05:18:23.608Z,993.85
2018-12-02T05:18:49.709Z,993.85
2018-12-02T05:19:15.849Z,993.88
2018-12-02T05:19:41.954Z,993.81
2018-12-02T05:20:08.061Z,993.87
2018-12-02T05:20:34.160Z,993.75
2018-12-02T05:21:00.264Z,993.86
2018-12-02T05:21:26.427Z,993.82
2018-12-02T05:21:52.478Z,993.79
2018-12-02T05:22:18.608Z,993.76
2018-12-02T05:22:44.772Z,993.81
2018-12-02T05:23:10.871Z,993.81
2018-12-02T05:23:37.033Z,993.77
2018-12-02T05:24:03.139Z,993.79
2018-12-02T05:24:29.249Z,993.74
2018-12-02T05:24:55.377Z,993.76
2018-12-02T05:25:22.493Z,993.71
2018-12-02T05:25:48.594Z,993.77
2018-12-02T05:26:14.731Z,993.74
2018-12-02T05:26:40.841Z,993.73